Climatologie pour Saint-Brevin les Pins
Jour • Résumé pour juin 28, 2017 Système :  Métrique    Anglais   Mixte
« - 1 jour
+ 1 jour »
Jour Semaine Mois Année Personnalisé
  Maximum : Minimum : Moyenne :
Température sous abri : 21.7 °C 16.3 °C 18.6 °C
Point de rosée : 16.7 °C 12.4 °C 15.6 °C
Humidité : 96 % 69 % 83 %
Vitesse du vent : 20.9 km/h 0.0 km/h 7.4 km/h
Rafale : 32.2 km/h - -
Direction :- - West
Pression : 1003.6 hPa 997.5 hPa -
Précipitations : 1.0 mm    
Historical Graphs
 
 
Tableau de données pour juin 28, 2017
Heure Tempé Pt rosée Pression Vent Vitesse Rafale Humidité Taux pluie (/hr) Soleil
00:00 17.7 °C 16.2 °C 1003.6 hPa Calm   8.0 km/h 91 % 0.0 mm 0 W/m2
00:10 17.9 °C 16.5 °C 1003.6 hPa WSW 1.6 km/h 9.7 km/h 91 % 0.0 mm 0 W/m2
00:15 18.0 °C 16.5 °C 1003.6 hPa WSW 8.0 km/h 9.7 km/h 91 % 0.0 mm 0 W/m2
00:20 18.0 °C 16.5 °C 1003.3 hPa Calm   9.7 km/h 91 % 0.0 mm 0 W/m2
00:25 17.9 °C 16.4 °C 1003.3 hPa WSW 1.6 km/h 8.0 km/h 91 % 0.0 mm 0 W/m2
00:30 17.7 °C 16.2 °C 1003.3 hPa Calm   6.4 km/h 91 % 0.0 mm 0 W/m2
00:40 17.3 °C 16.0 °C 1003.3 hPa Calm   6.4 km/h 92 % 0.0 mm 0 W/m2
00:45 17.2 °C 15.9 °C 1003.3 hPa WSW 4.8 km/h 4.8 km/h 92 % 0.0 mm 0 W/m2
00:50 17.3 °C 16.1 °C 1003.3 hPa SSW 4.8 km/h 6.4 km/h 93 % 0.0 mm 0 W/m2
00:55 17.4 °C 16.2 °C 1002.9 hPa South 1.6 km/h 9.7 km/h 93 % 0.0 mm 0 W/m2
01:00 17.5 °C 16.4 °C 1002.9 hPa South 3.2 km/h 9.7 km/h 93 % 0.0 mm 0 W/m2
01:05 17.6 °C 16.4 °C 1002.9 hPa South 4.8 km/h 8.0 km/h 93 % 0.0 mm 0 W/m2
01:10 17.6 °C 16.5 °C 1002.9 hPa South 6.4 km/h 8.0 km/h 93 % 0.0 mm 0 W/m2
01:15 17.6 °C 16.4 °C 1002.9 hPa Calm   8.0 km/h 93 % 0.0 mm 0 W/m2
01:25 17.6 °C 16.4 °C 1002.9 hPa South 3.2 km/h 8.0 km/h 93 % 0.0 mm 0 W/m2
01:30 17.6 °C 16.4 °C 1002.9 hPa South 6.4 km/h 8.0 km/h 93 % 0.0 mm 0 W/m2
01:35 17.6 °C 16.4 °C 1002.6 hPa Calm   8.0 km/h 93 % 0.0 mm 0 W/m2
01:40 17.5 °C 16.4 °C 1002.6 hPa South 8.0 km/h 11.3 km/h 93 % 0.0 mm 0 W/m2
01:45 17.5 °C 16.4 °C 1002.6 hPa SSW 6.4 km/h 11.3 km/h 93 % 0.0 mm 0 W/m2
01:50 17.6 °C 16.4 °C 1002.6 hPa SSW 8.0 km/h 11.3 km/h 93 % 0.0 mm 0 W/m2
01:55 17.6 °C 16.5 °C 1002.6 hPa SSW 1.6 km/h 11.3 km/h 93 % 0.0 mm 0 W/m2
02:00 17.6 °C 16.5 °C 1002.3 hPa South 6.4 km/h 8.0 km/h 93 % 0.0 mm 0 W/m2
02:10 17.7 °C 16.5 °C 1002.3 hPa SSW 4.8 km/h 12.9 km/h 93 % 0.0 mm 0 W/m2
02:15 17.6 °C 16.3 °C 1001.9 hPa SSW 1.6 km/h 12.9 km/h 92 % 0.0 mm 0 W/m2
02:20 17.6 °C 16.2 °C 1001.9 hPa SSW 4.8 km/h 12.9 km/h 92 % 0.0 mm 0 W/m2
02:25 17.6 °C 16.2 °C 1001.9 hPa SSW 8.0 km/h 12.9 km/h 92 % 0.0 mm 0 W/m2
02:30 17.6 °C 16.3 °C 1001.6 hPa South 8.0 km/h 11.3 km/h 92 % 0.0 mm 0 W/m2
02:35 17.6 °C 16.3 °C 1001.6 hPa SSW 4.8 km/h 14.5 km/h 92 % 0.0 mm 0 W/m2
02:40 17.7 °C 16.4 °C 1001.6 hPa SSW 3.2 km/h 14.5 km/h 92 % 0.0 mm 0 W/m2
02:45 17.7 °C 16.4 °C 1001.6 hPa SSW 3.2 km/h 12.9 km/h 92 % 0.0 mm 0 W/m2
02:55 17.8 °C 16.5 °C 1001.2 hPa SW 3.2 km/h 12.9 km/h 92 % 0.0 mm 0 W/m2
03:00 17.8 °C 16.6 °C 1001.2 hPa South 3.2 km/h 14.5 km/h 93 % 0.3 mm 0 W/m2
03:05 17.6 °C 16.4 °C 1001.2 hPa SSW 4.8 km/h 17.7 km/h 93 % 0.3 mm 0 W/m2
03:10 17.5 °C 16.5 °C 1000.9 hPa South 3.2 km/h 17.7 km/h 94 % 0.3 mm 0 W/m2
03:15 17.5 °C 16.5 °C 1000.9 hPa SW 4.8 km/h 14.5 km/h 94 % 0.3 mm 0 W/m2
03:20 17.5 °C 16.5 °C 1000.9 hPa Calm   12.9 km/h 94 % 0.3 mm 0 W/m2
03:30 17.2 °C 16.2 °C 1000.9 hPa WSW 6.4 km/h 17.7 km/h 94 % 0.3 mm 0 W/m2
03:40 17.1 °C 16.2 °C 1000.6 hPa SSW 6.4 km/h 14.5 km/h 95 % 0.3 mm 0 W/m2
03:45 17.1 °C 16.3 °C 1000.6 hPa WSW 6.4 km/h 16.1 km/h 95 % 0.3 mm 0 W/m2
03:50 17.2 °C 16.4 °C 1000.6 hPa SW 1.6 km/h 16.1 km/h 95 % 0.3 mm 0 W/m2
03:55 17.2 °C 16.4 °C 1000.6 hPa SW 8.0 km/h 11.3 km/h 95 % 0.5 mm 0 W/m2
04:00 17.1 °C 16.3 °C 1000.6 hPa WSW 14.5 km/h 17.7 km/h 95 % 0.3 mm 0 W/m2
04:05 17.0 °C 16.2 °C 1000.6 hPa West 6.4 km/h 17.7 km/h 95 % 0.3 mm 0 W/m2
04:10 16.9 °C 16.1 °C 1000.6 hPa WSW 1.6 km/h 17.7 km/h 95 % 0.3 mm 0 W/m2
04:15 16.9 °C 16.3 °C 1000.6 hPa WSW 3.2 km/h 17.7 km/h 96 % 0.3 mm 0 W/m2
04:25 16.9 °C 16.3 °C 1000.2 hPa West 6.4 km/h 20.9 km/h 96 % 0.5 mm 0 W/m2
04:30 16.9 °C 16.3 °C 1000.2 hPa West 6.4 km/h 22.5 km/h 96 % 0.5 mm 0 W/m2
04:35 16.9 °C 16.1 °C 1000.2 hPa WNW 16.1 km/h 32.2 km/h 95 % 0.5 mm 0 W/m2
04:40 16.8 °C 16.0 °C 1000.2 hPa WSW 4.8 km/h 32.2 km/h 95 % 0.5 mm 0 W/m2
04:45 16.8 °C 16.0 °C 1000.2 hPa WSW 4.8 km/h 24.1 km/h 95 % 0.5 mm 0 W/m2
04:50 16.9 °C 16.1 °C 999.9 hPa West 11.3 km/h 24.1 km/h 95 % 0.5 mm 0 W/m2
04:55 16.9 °C 16.1 °C 999.9 hPa WSW 9.7 km/h 24.1 km/h 95 % 0.3 mm 0 W/m2
05:00 16.8 °C 16.0 °C 999.9 hPa West 11.3 km/h 20.9 km/h 95 % 0.3 mm 0 W/m2
05:10 16.9 °C 16.1 °C 999.9 hPa West 8.0 km/h 20.9 km/h 95 % 0.3 mm 0 W/m2
05:15 17.1 °C 16.2 °C 999.9 hPa WSW 4.8 km/h 24.1 km/h 95 % 0.3 mm 0 W/m2
05:20 17.1 °C 16.2 °C 999.9 hPa West 3.2 km/h 24.1 km/h 95 % 0.0 mm 0 W/m2
05:25 17.0 °C 16.2 °C 999.9 hPa West 6.4 km/h 19.3 km/h 95 % 0.0 mm 0 W/m2
05:30 17.0 °C 16.2 °C 999.9 hPa West 9.7 km/h 17.7 km/h 95 % 0.0 mm 0 W/m2
05:35 17.0 °C 16.2 °C 999.9 hPa West 11.3 km/h 19.3 km/h 95 % 0.0 mm 0 W/m2
05:40 16.9 °C 16.1 °C 999.9 hPa WNW 9.7 km/h 19.3 km/h 95 % 0.0 mm 0 W/m2
05:45 17.0 °C 16.2 °C 999.5 hPa West 6.4 km/h 19.3 km/h 95 % 0.0 mm 0 W/m2
05:55 17.0 °C 16.2 °C 999.5 hPa West 12.9 km/h 20.9 km/h 95 % 0.0 mm 0 W/m2
06:00 16.9 °C 16.1 °C 999.5 hPa West 14.5 km/h 19.3 km/h 95 % 0.0 mm 0 W/m2
06:05 16.6 °C 15.8 °C 999.5 hPa NW 11.3 km/h 17.7 km/h 95 % 0.3 mm 0 W/m2
06:10 16.4 °C 15.6 °C 999.5 hPa West 14.5 km/h 17.7 km/h 95 % 0.3 mm 0 W/m2
06:15 16.6 °C 15.9 °C 999.5 hPa WSW 11.3 km/h 14.5 km/h 96 % 0.3 mm 0 W/m2
06:20 16.5 °C 15.7 °C 999.5 hPa NW 9.7 km/h 22.5 km/h 95 % 0.3 mm 0 W/m2
06:25 16.6 °C 15.9 °C 999.5 hPa WNW 6.4 km/h 22.5 km/h 96 % 0.3 mm 5 W/m2
06:30 16.5 °C 15.9 °C 999.5 hPa WNW 3.2 km/h 22.5 km/h 96 % 0.3 mm 7 W/m2
06:40 16.6 °C 15.9 °C 999.5 hPa NW 6.4 km/h 20.9 km/h 96 % 0.3 mm 11 W/m2
06:45 16.6 °C 15.9 °C 999.5 hPa WNW 16.1 km/h 20.9 km/h 96 % 0.3 mm 14 W/m2
06:50 16.6 °C 15.9 °C 999.5 hPa West 12.9 km/h 22.5 km/h 96 % 0.3 mm 16 W/m2
06:55 16.6 °C 16.0 °C 999.5 hPa WNW 1.6 km/h 22.5 km/h 96 % 0.3 mm 21 W/m2
07:00 16.7 °C 16.1 °C 999.5 hPa West 9.7 km/h 17.7 km/h 96 % 0.3 mm 32 W/m2
07:05 16.7 °C 15.9 °C 999.5 hPa WNW 11.3 km/h 19.3 km/h 95 % 0.0 mm 37 W/m2
07:10 16.6 °C 15.8 °C 999.5 hPa WNW 6.4 km/h 19.3 km/h 95 % 0.0 mm 39 W/m2
07:15 16.6 °C 15.8 °C 999.5 hPa WNW 1.6 km/h 17.7 km/h 95 % 0.0 mm 42 W/m2
07:25 16.6 °C 15.8 °C 999.5 hPa West 9.7 km/h 17.7 km/h 95 % 0.3 mm 53 W/m2
07:30 16.7 °C 15.7 °C 999.5 hPa WNW 9.7 km/h 19.3 km/h 94 % 0.3 mm 67 W/m2
07:35 16.7 °C 15.8 °C 999.5 hPa WNW 17.7 km/h 22.5 km/h 94 % 0.3 mm 74 W/m2
07:40 16.7 °C 15.7 °C 999.5 hPa West 11.3 km/h 22.5 km/h 94 % 0.3 mm 70 W/m2
07:45 16.7 °C 15.5 °C 999.5 hPa NNW 20.9 km/h 20.9 km/h 93 % 0.3 mm 70 W/m2
07:50 16.6 °C 15.3 °C 999.9 hPa WNW 8.0 km/h 27.4 km/h 92 % 0.3 mm 69 W/m2
07:55 16.6 °C 15.3 °C 999.9 hPa WSW 12.9 km/h 27.4 km/h 92 % 0.3 mm 67 W/m2
08:00 16.7 °C 15.4 °C 999.9 hPa WNW 6.4 km/h 25.7 km/h 92 % 0.3 mm 72 W/m2
08:10 16.8 °C 15.5 °C 999.9 hPa WNW 4.8 km/h 25.7 km/h 92 % 0.3 mm 104 W/m2
08:15 16.8 °C 15.5 °C 999.9 hPa WNW 8.0 km/h 19.3 km/h 92 % 0.3 mm 120 W/m2
08:20 17.0 °C 15.7 °C 999.9 hPa WNW 6.4 km/h 22.5 km/h 92 % 0.0 mm 213 W/m2
08:25 17.2 °C 15.9 °C 999.9 hPa WNW 8.0 km/h 22.5 km/h 92 % 0.0 mm 302 W/m2
08:30 17.6 °C 16.1 °C 999.9 hPa NW 8.0 km/h 22.5 km/h 91 % 0.0 mm 366 W/m2
08:35 17.8 °C 15.9 °C 999.9 hPa WNW 8.0 km/h 22.5 km/h 89 % 0.0 mm 301 W/m2
08:40 18.0 °C 16.3 °C 999.9 hPa West 6.4 km/h 22.5 km/h 90 % 0.0 mm 278 W/m2
08:45 18.0 °C 16.0 °C 999.9 hPa WNW 4.8 km/h 22.5 km/h 88 % 0.0 mm 288 W/m2
08:55 18.2 °C 16.0 °C 999.5 hPa WSW 11.3 km/h 20.9 km/h 87 % 0.0 mm 213 W/m2
09:00 17.9 °C 15.7 °C 999.9 hPa West 8.0 km/h 19.3 km/h 87 % 0.0 mm 195 W/m2
09:05 17.8 °C 15.8 °C 999.9 hPa WNW 8.0 km/h 20.9 km/h 88 % 0.0 mm 216 W/m2
09:10 17.7 °C 15.7 °C 999.9 hPa WNW 11.3 km/h 22.5 km/h 88 % 0.0 mm 197 W/m2
09:15 17.6 °C 15.6 °C 999.5 hPa WNW 6.4 km/h 24.1 km/h 88 % 0.0 mm 197 W/m2
09:20 17.6 °C 15.6 °C 999.5 hPa West 16.1 km/h 24.1 km/h 88 % 0.0 mm 190 W/m2
09:25 17.5 °C 15.5 °C 999.5 hPa West 3.2 km/h 22.5 km/h 88 % 0.0 mm 188 W/m2
09:30 17.5 °C 15.5 °C 999.5 hPa NW 11.3 km/h 20.9 km/h 88 % 0.0 mm 192 W/m2
09:40 17.7 °C 15.7 °C 999.5 hPa West 4.8 km/h 20.9 km/h 88 % 0.0 mm 378 W/m2
09:45 18.0 °C 16.0 °C 999.5 hPa WNW 3.2 km/h 20.9 km/h 88 % 0.0 mm 190 W/m2
09:50 18.0 °C 15.6 °C 999.9 hPa Calm   17.7 km/h 86 % 0.0 mm 178 W/m2
09:55 18.2 °C 15.8 °C 999.9 hPa West 6.4 km/h 12.9 km/h 86 % 0.0 mm 554 W/m2
10:00 18.8 °C 16.1 °C 999.9 hPa West 14.5 km/h 17.7 km/h 84 % 0.0 mm 571 W/m2
10:05 19.1 °C 15.9 °C 999.9 hPa WNW 11.3 km/h 20.9 km/h 82 % 0.0 mm 605 W/m2
10:10 19.2 °C 16.0 °C 999.9 hPa WSW 3.2 km/h 20.9 km/h 82 % 0.0 mm 605 W/m2
10:15 19.4 °C 16.5 °C 999.9 hPa SW 11.3 km/h 20.9 km/h 83 % 0.0 mm 612 W/m2
10:25 19.6 °C 16.3 °C 999.9 hPa West 11.3 km/h 17.7 km/h 81 % 0.0 mm 513 W/m2
10:30 19.6 °C 15.8 °C 1000.2 hPa WNW 14.5 km/h 22.5 km/h 79 % 0.0 mm 645 W/m2
10:35 19.8 °C 16.0 °C 999.9 hPa WNW 12.9 km/h 22.5 km/h 79 % 0.0 mm 649 W/m2
10:40 19.9 °C 15.6 °C 999.9 hPa WNW 8.0 km/h 20.9 km/h 76 % 0.0 mm 661 W/m2
10:45 20.2 °C 15.8 °C 999.9 hPa NW 9.7 km/h 16.1 km/h 76 % 0.0 mm 671 W/m2
10:50 20.4 °C 15.6 °C 999.9 hPa NW 12.9 km/h 19.3 km/h 74 % 0.0 mm 687 W/m2
10:55 20.4 °C 15.4 °C 999.9 hPa West 11.3 km/h 19.3 km/h 73 % 0.0 mm 724 W/m2
11:00 20.6 °C 15.8 °C 999.9 hPa West 14.5 km/h 17.7 km/h 74 % 0.0 mm 666 W/m2
11:10 20.0 °C 15.0 °C 999.9 hPa WNW 14.5 km/h 20.9 km/h 73 % 0.0 mm 413 W/m2
11:15 20.1 °C 15.7 °C 999.9 hPa West 9.7 km/h 19.3 km/h 76 % 0.0 mm 733 W/m2
11:20 20.1 °C 15.7 °C 999.9 hPa WSW 6.4 km/h 17.7 km/h 76 % 0.0 mm 740 W/m2
11:25 19.7 °C 15.5 °C 999.9 hPa SW 11.3 km/h 17.7 km/h 77 % 0.0 mm 752 W/m2
11:30 20.1 °C 15.9 °C 999.9 hPa West 11.3 km/h 17.7 km/h 77 % 0.0 mm 765 W/m2
11:35 19.7 °C 15.3 °C 999.9 hPa SSW 4.8 km/h 16.1 km/h 76 % 0.0 mm 821 W/m2
11:40 19.9 °C 15.6 °C 999.9 hPa WSW 6.4 km/h 16.1 km/h 76 % 0.0 mm 483 W/m2
11:45 19.7 °C 15.3 °C 999.9 hPa WNW 3.2 km/h 14.5 km/h 76 % 0.0 mm 499 W/m2
11:55 19.4 °C 15.5 °C 1000.2 hPa WSW 12.9 km/h 17.7 km/h 78 % 0.0 mm 443 W/m2
12:05 20.1 °C 15.7 °C 1000.2 hPa WSW 6.4 km/h 17.7 km/h 76 % 0.0 mm 1041 W/m2
12:10 20.2 °C 15.6 °C 999.9 hPa West 14.5 km/h 19.3 km/h 75 % 0.0 mm 1013 W/m2
12:15 20.2 °C 14.8 °C 999.9 hPa WSW 6.4 km/h 20.9 km/h 71 % 0.0 mm 819 W/m2
12:20 20.4 °C 15.4 °C 999.9 hPa West 6.4 km/h 20.9 km/h 73 % 0.0 mm 819 W/m2
12:25 20.3 °C 15.5 °C 999.9 hPa WNW 9.7 km/h 16.1 km/h 74 % 0.0 mm 573 W/m2
12:30 20.7 °C 15.1 °C 999.9 hPa West 8.0 km/h 16.1 km/h 70 % 0.0 mm 949 W/m2
12:40 20.9 °C 15.7 °C 999.9 hPa NW 8.0 km/h 19.3 km/h 72 % 0.0 mm 1005 W/m2
12:45 20.8 °C 15.6 °C 999.9 hPa NW 11.3 km/h 14.5 km/h 72 % 0.0 mm 1086 W/m2
12:50 21.3 °C 15.6 °C 999.5 hPa WNW 12.9 km/h 14.5 km/h 70 % 0.0 mm 455 W/m2
12:55 20.2 °C 15.2 °C 999.5 hPa West 4.8 km/h 14.5 km/h 73 % 0.0 mm 417 W/m2
13:00 20.6 °C 15.8 °C 999.5 hPa WNW 9.7 km/h 14.5 km/h 74 % 0.0 mm 605 W/m2
13:05 20.4 °C 15.0 °C 999.5 hPa WNW 4.8 km/h 12.9 km/h 71 % 0.0 mm 554 W/m2
13:10 20.6 °C 14.7 °C 999.5 hPa WSW 3.2 km/h 11.3 km/h 69 % 0.0 mm 512 W/m2
13:15 20.2 °C 14.3 °C 999.5 hPa West 1.6 km/h 14.5 km/h 69 % 0.0 mm 668 W/m2
13:25 19.9 °C 14.7 °C 999.5 hPa WNW 8.0 km/h 11.3 km/h 72 % 0.0 mm 336 W/m2
13:30 19.7 °C 14.7 °C 999.5 hPa West 12.9 km/h 12.9 km/h 73 % 0.0 mm 360 W/m2
13:35 19.6 °C 14.8 °C 999.5 hPa SW 6.4 km/h 12.9 km/h 74 % 0.0 mm 355 W/m2
13:40 19.5 °C 14.5 °C 999.5 hPa West 3.2 km/h 12.9 km/h 73 % 0.0 mm 329 W/m2
13:45 19.3 °C 14.8 °C 999.5 hPa WSW 8.0 km/h 11.3 km/h 75 % 0.0 mm 316 W/m2
13:50 19.2 °C 14.7 °C 999.2 hPa Calm   12.9 km/h 75 % 0.0 mm 302 W/m2
13:55 19.2 °C 15.1 °C 999.2 hPa West 6.4 km/h 12.9 km/h 77 % 0.0 mm 338 W/m2
14:00 19.3 °C 15.2 °C 999.2 hPa WSW 8.0 km/h 12.9 km/h 77 % 0.0 mm 527 W/m2
14:10 19.8 °C 15.8 °C 998.9 hPa West 6.4 km/h 12.9 km/h 78 % 0.0 mm 517 W/m2
14:15 19.9 °C 16.0 °C 998.9 hPa WNW 4.8 km/h 14.5 km/h 78 % 0.0 mm 591 W/m2
14:20 20.4 °C 16.3 °C 998.9 hPa WSW 9.7 km/h 14.5 km/h 77 % 0.0 mm 872 W/m2
14:30 21.0 °C 16.4 °C 998.9 hPa WSW 8.0 km/h 17.7 km/h 75 % 0.0 mm 844 W/m2
14:35 21.1 °C 16.0 °C 998.9 hPa West 6.4 km/h 17.7 km/h 73 % 0.0 mm 622 W/m2
14:40 20.9 °C 16.1 °C 998.9 hPa West 9.7 km/h 17.7 km/h 74 % 0.0 mm 939 W/m2
14:45 21.2 °C 16.3 °C 998.9 hPa WSW 4.8 km/h 16.1 km/h 74 % 0.0 mm 654 W/m2
14:55 21.1 °C 16.0 °C 998.9 hPa WSW 14.5 km/h 19.3 km/h 73 % 0.0 mm 566 W/m2
15:00 21.3 °C 16.7 °C 998.9 hPa WSW 6.4 km/h 19.3 km/h 75 % 0.0 mm 1199 W/m2
15:05 21.7 °C 16.4 °C 998.9 hPa SW 6.4 km/h 19.3 km/h 72 % 0.0 mm 1107 W/m2
15:10 21.2 °C 16.4 °C 998.9 hPa SW 8.0 km/h 20.9 km/h 74 % 0.0 mm 1179 W/m2
15:15 20.4 °C 15.9 °C 998.9 hPa WSW 9.7 km/h 20.9 km/h 75 % 0.0 mm 749 W/m2
15:20 20.6 °C 16.2 °C 998.5 hPa West 14.5 km/h 17.7 km/h 76 % 0.0 mm 1065 W/m2
15:25 20.7 °C 16.1 °C 998.5 hPa SW 9.7 km/h 16.1 km/h 75 % 0.0 mm 654 W/m2
15:30 20.5 °C 16.1 °C 998.5 hPa WSW 6.4 km/h 14.5 km/h 76 % 0.0 mm 712 W/m2
15:40 20.4 °C 16.2 °C 998.9 hPa West 4.8 km/h 14.5 km/h 77 % 0.0 mm 381 W/m2
15:45 20.0 °C 15.8 °C 998.9 hPa WSW 6.4 km/h 12.9 km/h 77 % 0.0 mm 357 W/m2
15:50 19.6 °C 15.9 °C 998.5 hPa WNW 3.2 km/h 14.5 km/h 79 % 0.0 mm 330 W/m2
15:55 19.6 °C 15.8 °C 998.9 hPa WNW 8.0 km/h 14.5 km/h 79 % 0.0 mm 373 W/m2
16:05 20.2 °C 16.4 °C 998.5 hPa SW 12.9 km/h 14.5 km/h 79 % 0.0 mm 476 W/m2
16:10 19.9 °C 15.9 °C 998.5 hPa WSW 12.9 km/h 14.5 km/h 78 % 0.0 mm 489 W/m2
16:15 20.0 °C 16.2 °C 998.5 hPa West 11.3 km/h 17.7 km/h 79 % 0.0 mm 566 W/m2
16:25 20.8 °C 16.2 °C 998.5 hPa WSW 9.7 km/h 16.1 km/h 75 % 0.0 mm 888 W/m2
16:30 20.7 °C 16.1 °C 998.5 hPa WSW 11.3 km/h 16.1 km/h 75 % 0.0 mm 612 W/m2
16:35 20.5 °C 16.1 °C 998.5 hPa WSW 4.8 km/h 17.7 km/h 76 % 0.0 mm 469 W/m2
16:40 20.3 °C 15.1 °C 998.5 hPa SW 6.4 km/h 17.7 km/h 72 % 0.0 mm 496 W/m2
16:45 20.0 °C 15.6 °C 998.5 hPa SW 4.8 km/h 16.1 km/h 76 % 0.0 mm 582 W/m2
16:50 20.5 °C 15.5 °C 998.5 hPa WSW 11.3 km/h 14.5 km/h 73 % 0.0 mm 766 W/m2
16:55 20.7 °C 15.9 °C 998.5 hPa WSW 9.7 km/h 19.3 km/h 74 % 0.0 mm 737 W/m2
17:00 20.6 °C 15.8 °C 998.5 hPa WSW 6.4 km/h 19.3 km/h 74 % 0.0 mm 721 W/m2
17:10 21.2 °C 15.5 °C 998.5 hPa WSW 8.0 km/h 16.1 km/h 70 % 0.0 mm 684 W/m2
17:15 20.7 °C 15.7 °C 998.5 hPa West 4.8 km/h 16.1 km/h 73 % 0.0 mm 682 W/m2
17:20 20.7 °C 15.5 °C 998.5 hPa WNW 11.3 km/h 14.5 km/h 72 % 0.0 mm 668 W/m2
17:25 20.9 °C 15.7 °C 998.5 hPa SSW 4.8 km/h 16.1 km/h 72 % 0.0 mm 664 W/m2
17:30 20.8 °C 15.8 °C 998.5 hPa West 6.4 km/h 16.1 km/h 73 % 0.0 mm 647 W/m2
17:35 20.8 °C 16.0 °C 998.5 hPa West 14.5 km/h 16.1 km/h 74 % 0.0 mm 636 W/m2
17:40 20.6 °C 15.8 °C 998.5 hPa WNW 6.4 km/h 19.3 km/h 74 % 0.0 mm 633 W/m2
17:45 20.8 °C 15.8 °C 998.5 hPa WSW 16.1 km/h 19.3 km/h 73 % 0.0 mm 629 W/m2
17:55 20.6 °C 16.0 °C 998.2 hPa WSW 6.4 km/h 20.9 km/h 75 % 0.0 mm 596 W/m2
18:00 20.4 °C 15.9 °C 998.2 hPa WNW 12.9 km/h 20.9 km/h 75 % 0.0 mm 434 W/m2
18:05 20.3 °C 15.8 °C 998.2 hPa WSW 14.5 km/h 20.9 km/h 75 % 0.0 mm 468 W/m2
18:10 20.6 °C 16.2 °C 997.9 hPa WNW 17.7 km/h 20.9 km/h 76 % 0.0 mm 603 W/m2
18:15 20.6 °C 15.4 °C 997.9 hPa SW 11.3 km/h 22.5 km/h 72 % 0.0 mm 589 W/m2
18:20 21.2 °C 16.1 °C 997.9 hPa WSW 9.7 km/h 22.5 km/h 73 % 0.0 mm 557 W/m2
18:25 20.8 °C 15.3 °C 997.9 hPa West 6.4 km/h 17.7 km/h 71 % 0.0 mm 503 W/m2
18:30 21.2 °C 16.0 °C 997.9 hPa WNW 9.7 km/h 17.7 km/h 72 % 0.0 mm 436 W/m2
18:40 20.7 °C 15.3 °C 997.9 hPa West 6.4 km/h 16.1 km/h 71 % 0.0 mm 466 W/m2
18:45 20.6 °C 15.6 °C 997.9 hPa West 6.4 km/h 17.7 km/h 73 % 0.0 mm 462 W/m2
18:50 20.3 °C 15.1 °C 997.9 hPa West 11.3 km/h 17.7 km/h 72 % 0.0 mm 464 W/m2
18:55 20.4 °C 15.4 °C 997.9 hPa WSW 6.4 km/h 19.3 km/h 73 % 0.0 mm 445 W/m2
19:00 20.7 °C 15.7 °C 997.9 hPa WSW 11.3 km/h 19.3 km/h 73 % 0.0 mm 424 W/m2
19:05 20.4 °C 15.7 °C 997.9 hPa SW 12.9 km/h 19.3 km/h 74 % 0.0 mm 394 W/m2
19:10 20.7 °C 16.1 °C 997.5 hPa West 9.7 km/h 20.9 km/h 75 % 0.0 mm 392 W/m2
19:15 20.7 °C 15.7 °C 997.9 hPa NW 6.4 km/h 20.9 km/h 73 % 0.0 mm 376 W/m2
19:25 20.6 °C 15.5 °C 997.9 hPa West 8.0 km/h 17.7 km/h 73 % 0.0 mm 345 W/m2
19:30 20.7 °C 15.7 °C 997.9 hPa West 14.5 km/h 16.1 km/h 73 % 0.0 mm 334 W/m2
19:35 20.6 °C 15.6 °C 997.9 hPa WNW 12.9 km/h 16.1 km/h 73 % 0.0 mm 315 W/m2
19:40 20.4 °C 15.4 °C 997.9 hPa West 4.8 km/h 19.3 km/h 73 % 0.0 mm 292 W/m2
19:45 20.6 °C 14.9 °C 997.9 hPa West 4.8 km/h 19.3 km/h 70 % 0.0 mm 264 W/m2
19:55 20.3 °C 14.4 °C 998.2 hPa WNW 6.4 km/h 24.1 km/h 69 % 0.0 mm 214 W/m2
20:00 20.1 °C 14.5 °C 998.2 hPa NW 14.5 km/h 24.1 km/h 70 % 0.0 mm 200 W/m2
20:10 19.9 °C 14.5 °C 998.2 hPa WNW 6.4 km/h 20.9 km/h 71 % 0.0 mm 186 W/m2
20:20 19.8 °C 15.0 °C 998.2 hPa NW 9.7 km/h 22.5 km/h 74 % 0.0 mm 148 W/m2
20:25 19.6 °C 15.0 °C 998.2 hPa WNW 9.7 km/h 19.3 km/h 75 % 0.0 mm 130 W/m2
20:30 19.3 °C 14.8 °C 998.5 hPa West 3.2 km/h 19.3 km/h 75 % 0.0 mm 47 W/m2
20:35 18.9 °C 14.6 °C 998.5 hPa North 4.8 km/h 19.3 km/h 76 % 0.0 mm 39 W/m2
20:40 18.8 °C 14.7 °C 998.5 hPa WSW 3.2 km/h 17.7 km/h 77 % 0.0 mm 47 W/m2
20:45 18.8 °C 14.9 °C 998.5 hPa North 8.0 km/h 17.7 km/h 78 % 0.0 mm 53 W/m2
20:55 18.7 °C 15.0 °C 998.5 hPa West 3.2 km/h 16.1 km/h 79 % 0.0 mm 23 W/m2
21:00 18.6 °C 15.0 °C 998.5 hPa WNW 6.4 km/h 16.1 km/h 80 % 0.0 mm 19 W/m2
21:05 18.5 °C 15.0 °C 998.5 hPa WNW 4.8 km/h 12.9 km/h 80 % 0.0 mm 18 W/m2
21:10 18.5 °C 15.2 °C 998.5 hPa WNW 11.3 km/h 14.5 km/h 81 % 0.0 mm 16 W/m2
21:15 18.5 °C 15.2 °C 998.5 hPa NW 3.2 km/h 14.5 km/h 81 % 0.0 mm 14 W/m2
21:20 18.4 °C 15.3 °C 998.5 hPa West 3.2 km/h 12.9 km/h 82 % 0.0 mm 14 W/m2
21:25 18.4 °C 15.3 °C 998.5 hPa WNW 4.8 km/h 12.9 km/h 82 % 0.0 mm 12 W/m2
21:30 18.4 °C 15.1 °C 998.5 hPa NW 3.2 km/h 14.5 km/h 81 % 0.0 mm 11 W/m2
21:40 18.6 °C 15.5 °C 998.9 hPa North 12.9 km/h 19.3 km/h 82 % 0.0 mm 7 W/m2
21:45 18.7 °C 15.5 °C 998.9 hPa Calm   19.3 km/h 82 % 0.0 mm 5 W/m2
21:50 18.6 °C 15.0 °C 998.9 hPa North 4.8 km/h 17.7 km/h 80 % 0.0 mm 0 W/m2
21:55 18.4 °C 14.7 °C 998.9 hPa North 9.7 km/h 17.7 km/h 79 % 0.0 mm 0 W/m2
22:00 18.3 °C 14.4 °C 999.2 hPa NNE 1.6 km/h 17.7 km/h 78 % 0.0 mm 0 W/m2
22:05 18.2 °C 14.1 °C 999.2 hPa NNE 8.0 km/h 17.7 km/h 77 % 0.0 mm 0 W/m2
22:10 18.1 °C 14.0 °C 999.2 hPa North 6.4 km/h 16.1 km/h 77 % 0.0 mm 0 W/m2
22:15 18.0 °C 13.9 °C 999.2 hPa NW 6.4 km/h 17.7 km/h 77 % 0.0 mm 0 W/m2
22:25 17.7 °C 13.8 °C 999.5 hPa NNW 6.4 km/h 17.7 km/h 78 % 0.0 mm 0 W/m2
22:30 17.6 °C 13.9 °C 999.5 hPa West 1.6 km/h 16.1 km/h 79 % 0.0 mm 0 W/m2
22:35 17.3 °C 13.8 °C 999.9 hPa NNW 6.4 km/h 16.1 km/h 80 % 0.0 mm 0 W/m2
22:40 17.2 °C 13.7 °C 999.9 hPa NNW 4.8 km/h 16.1 km/h 80 % 0.0 mm 0 W/m2
22:45 17.1 °C 13.8 °C 999.9 hPa Calm   16.1 km/h 81 % 0.0 mm 0 W/m2
22:50 16.9 °C 13.8 °C 999.9 hPa NW 1.6 km/h 11.3 km/h 82 % 0.0 mm 0 W/m2
22:55 16.8 °C 13.9 °C 999.9 hPa NW 1.6 km/h 12.9 km/h 83 % 0.0 mm 0 W/m2
23:00 16.6 °C 13.9 °C 999.9 hPa NW 1.6 km/h 12.9 km/h 84 % 0.0 mm 0 W/m2
23:10 16.3 °C 13.8 °C 1000.2 hPa NW 1.6 km/h 12.9 km/h 85 % 0.0 mm 0 W/m2
23:15 16.4 °C 13.9 °C 1000.2 hPa Calm   12.9 km/h 85 % 0.0 mm 0 W/m2
23:20 16.4 °C 13.5 °C 1000.2 hPa Calm   16.1 km/h 83 % 0.0 mm 0 W/m2
23:25 16.6 °C 13.5 °C 1000.2 hPa NNW 8.0 km/h 16.1 km/h 82 % 0.0 mm 0 W/m2
23:30 16.6 °C 12.9 °C 1000.2 hPa WNW 3.2 km/h 17.7 km/h 79 % 0.0 mm 0 W/m2
23:35 16.7 °C 12.4 °C 1000.2 hPa NNW 9.7 km/h 17.7 km/h 76 % 0.0 mm 0 W/m2
23:40 16.9 °C 12.5 °C 1000.2 hPa North 3.2 km/h 19.3 km/h 75 % 0.0 mm 0 W/m2
23:45 17.0 °C 12.5 °C 1000.2 hPa NW 12.9 km/h 19.3 km/h 75 % 0.0 mm 0 W/m2
23:55 16.8 °C 12.4 °C 1000.6 hPa West 4.8 km/h 16.1 km/h 75 % 0.0 mm 0 W/m2
Avec l'autorisation de Weather Underground - 1.5 mb